createdAt,value
2022-10-11T00:01:39.719Z,4.40
2022-10-11T00:04:26.591Z,3.70
2022-10-11T00:07:13.426Z,3.70
2022-10-11T00:10:01.637Z,3.93
2022-10-11T00:12:48.644Z,3.93
2022-10-11T00:15:35.910Z,4.30
2022-10-11T00:18:23.441Z,3.27
2022-10-11T00:21:12.817Z,3.80
2022-10-11T00:24:00.234Z,3.83
2022-10-11T00:26:48.525Z,4.40
2022-10-11T00:29:35.377Z,3.80
2022-10-11T00:32:22.055Z,4.00
2022-10-11T00:35:09.758Z,4.20
2022-10-11T00:37:57.764Z,3.33
2022-10-11T00:40:44.459Z,3.70
2022-10-11T00:43:33.554Z,3.90
2022-10-11T00:46:30.059Z,4.03
2022-10-11T00:49:23.713Z,3.33
2022-10-11T00:52:18.225Z,3.17
2022-10-11T00:55:08.286Z,3.53
2022-10-11T00:57:56.845Z,3.30
2022-10-11T01:00:45.378Z,3.57
2022-10-11T01:03:33.678Z,3.30
2022-10-11T01:06:20.841Z,3.47
2022-10-11T01:09:07.971Z,2.87
2022-10-11T01:11:57.915Z,3.07
2022-10-11T01:15:09.342Z,2.97
2022-10-11T01:18:04.847Z,3.53
2022-10-11T01:21:00.275Z,2.90
2022-10-11T01:24:09.195Z,3.30
2022-10-11T01:27:39.559Z,3.70
2022-10-11T01:30:29.206Z,3.30
2022-10-11T01:33:32.306Z,2.87
2022-10-11T01:36:27.806Z,2.97
2022-10-11T01:39:20.118Z,2.97
2022-10-11T01:42:10.967Z,3.50
2022-10-11T01:45:00.084Z,3.40
2022-10-11T01:47:48.738Z,2.90
2022-10-11T01:50:41.006Z,3.17
2022-10-11T01:54:00.681Z,3.30
2022-10-11T01:57:15.676Z,2.93
2022-10-11T02:00:10.052Z,2.87
2022-10-11T02:03:13.298Z,3.10
2022-10-11T02:06:06.218Z,2.87
2022-10-11T02:08:57.180Z,3.47
2022-10-11T02:11:46.663Z,3.33
2022-10-11T02:14:38.180Z,3.40
2022-10-11T02:17:32.240Z,3.40
2022-10-11T02:20:24.093Z,3.03
2022-10-11T02:23:14.483Z,3.10
2022-10-11T02:26:04.933Z,3.70
2022-10-11T02:28:57.508Z,3.00
2022-10-11T02:31:46.289Z,3.10
2022-10-11T02:34:36.909Z,3.23
2022-10-11T02:37:33.791Z,3.00
2022-10-11T02:40:24.838Z,3.17
2022-10-11T02:43:17.596Z,3.87
2022-10-11T02:46:07.547Z,3.93
2022-10-11T02:48:55.588Z,3.23
2022-10-11T02:51:42.785Z,3.10
2022-10-11T02:54:30.828Z,3.20
2022-10-11T02:57:17.723Z,3.87
2022-10-11T03:00:06.052Z,4.03
2022-10-11T03:02:52.842Z,4.03
2022-10-11T03:05:41.601Z,3.40
2022-10-11T03:08:28.686Z,3.13
2022-10-11T03:11:16.669Z,3.30
2022-10-11T03:14:03.393Z,3.33
2022-10-11T03:16:51.524Z,3.87
2022-10-11T03:19:38.733Z,3.40
2022-10-11T03:22:25.663Z,3.93
2022-10-11T03:25:12.757Z,4.00
2022-10-11T03:28:02.765Z,3.93
2022-10-11T03:30:49.844Z,4.10
2022-10-11T03:33:36.560Z,5.03
2022-10-11T03:36:23.436Z,3.73
2022-10-11T03:39:10.271Z,5.03
2022-10-11T03:41:57.633Z,4.47
2022-10-11T03:44:45.502Z,4.60
2022-10-11T03:47:32.753Z,5.37
2022-10-11T03:50:19.774Z,4.23
2022-10-11T03:53:07.870Z,5.13
2022-10-11T03:55:55.578Z,4.63
2022-10-11T03:58:42.495Z,4.77
2022-10-11T04:01:30.744Z,4.17
2022-10-11T04:04:17.642Z,4.20
2022-10-11T04:07:04.734Z,4.80
2022-10-11T04:09:52.153Z,4.43
2022-10-11T04:12:39.494Z,5.07
2022-10-11T04:15:26.170Z,4.10
2022-10-11T04:18:14.324Z,5.63
2022-10-11T04:21:01.069Z,5.37
2022-10-11T04:23:48.037Z,4.80
2022-10-11T04:26:35.076Z,5.27
2022-10-11T04:29:22.005Z,5.17
2022-10-11T04:32:08.710Z,5.27
2022-10-11T04:34:57.208Z,5.70
2022-10-11T04:37:43.821Z,5.17
2022-10-11T04:40:30.724Z,5.10
2022-10-11T04:43:18.635Z,5.47
2022-10-11T04:46:06.401Z,5.17
2022-10-11T04:48:53.843Z,4.93
2022-10-11T04:51:41.919Z,5.03
2022-10-11T04:54:28.640Z,4.83
2022-10-11T04:57:15.281Z,4.90
2022-10-11T05:00:02.126Z,4.50
2022-10-11T05:02:49.082Z,4.80
2022-10-11T05:05:36.261Z,4.30
2022-10-11T05:08:24.973Z,4.50
2022-10-11T05:11:16.082Z,9.30
2022-10-11T05:14:03.145Z,10.33
2022-10-11T05:16:49.794Z,12.50
2022-10-11T05:19:36.612Z,11.30
2022-10-11T05:22:23.569Z,8.93
2022-10-11T05:25:11.994Z,8.83
2022-10-11T05:27:59.205Z,7.53
2022-10-11T05:30:45.902Z,11.83
2022-10-11T05:33:33.467Z,17.23
2022-10-11T05:36:20.053Z,13.53
2022-10-11T05:39:07.096Z,13.13
2022-10-11T05:41:55.498Z,11.50
2022-10-11T05:44:42.130Z,10.43
2022-10-11T05:47:28.716Z,7.20
2022-10-11T05:50:17.192Z,5.97
2022-10-11T05:53:05.849Z,6.33
2022-10-11T05:55:52.338Z,7.43
2022-10-11T05:58:40.898Z,6.63
2022-10-11T06:01:30.934Z,6.97
2022-10-11T06:04:19.180Z,6.13
2022-10-11T06:07:05.985Z,6.00
2022-10-11T06:09:52.580Z,6.93
2022-10-11T06:12:39.925Z,7.10
2022-10-11T06:15:28.283Z,6.83
2022-10-11T06:18:15.214Z,6.83
2022-10-11T06:21:02.239Z,7.60
2022-10-11T06:23:49.898Z,6.90
2022-10-11T06:26:36.822Z,6.77
2022-10-11T06:29:24.153Z,6.77
2022-10-11T06:32:13.401Z,7.07
2022-10-11T06:35:00.612Z,7.77
2022-10-11T06:37:47.158Z,9.13
2022-10-11T06:40:34.150Z,9.43
2022-10-11T06:43:21.340Z,8.53
2022-10-11T06:46:08.444Z,8.63
2022-10-11T06:48:57.621Z,7.70
2022-10-11T06:51:44.798Z,8.53
2022-10-11T06:54:31.837Z,7.83
2022-10-11T06:57:18.780Z,8.40
2022-10-11T07:00:10.318Z,9.00
2022-10-11T07:02:59.424Z,8.17
2022-10-11T07:05:47.978Z,7.70
2022-10-11T07:08:35.147Z,8.43
2022-10-11T07:11:23.487Z,10.10
2022-10-11T07:14:11.186Z,10.50
2022-10-11T07:16:58.105Z,9.70
2022-10-11T07:19:44.718Z,9.73
2022-10-11T07:22:32.939Z,9.63
2022-10-11T07:25:19.811Z,9.90
2022-10-11T07:28:06.670Z,11.40
2022-10-11T07:30:53.692Z,10.50
2022-10-11T07:33:41.000Z,11.60
2022-10-11T07:36:28.143Z,11.00
2022-10-11T07:39:16.357Z,12.30
2022-10-11T07:42:02.981Z,11.27
2022-10-11T07:44:49.960Z,13.93
2022-10-11T07:47:36.943Z,10.10
2022-10-11T07:50:24.050Z,10.27
2022-10-11T07:53:11.201Z,9.80
2022-10-11T07:56:03.131Z,13.93
2022-10-11T07:58:52.418Z,14.30
2022-10-11T08:01:39.517Z,10.90
2022-10-11T08:04:26.518Z,11.07
2022-10-11T08:07:13.405Z,9.73
2022-10-11T08:10:00.534Z,11.20
2022-10-11T08:12:49.651Z,10.33
2022-10-11T08:15:36.675Z,10.70
2022-10-11T08:18:23.917Z,42.63
2022-10-11T08:21:11.914Z,13.60
2022-10-11T08:23:59.145Z,11.20
2022-10-11T08:26:45.766Z,19.70
2022-10-11T08:29:34.191Z,11.23
2022-10-11T08:32:20.914Z,10.33
2022-10-11T08:35:08.166Z,10.47
2022-10-11T08:37:55.016Z,9.63
2022-10-11T08:40:47.588Z,8.83
2022-10-11T08:43:43.630Z,8.87
2022-10-11T08:46:35.059Z,6.60
2022-10-11T08:49:25.849Z,7.70
2022-10-11T08:52:16.194Z,7.13
2022-10-11T08:55:05.753Z,8.63
2022-10-11T08:57:55.832Z,10.67
2022-10-11T09:00:43.886Z,11.63
2022-10-11T09:03:43.188Z,12.40
2022-10-11T09:06:41.105Z,16.23
2022-10-11T09:09:45.698Z,11.37
2022-10-11T09:12:45.890Z,6.00
2022-10-11T09:15:23.173Z,5.27
2022-10-11T09:18:09.451Z,7.70
2022-10-11T09:20:52.966Z,23.97
2022-10-11T09:23:41.774Z,8.47
2022-10-11T09:26:15.712Z,13.50
2022-10-11T09:29:00.787Z,5.37
2022-10-11T09:31:29.806Z,3.63
2022-10-11T09:34:02.049Z,3.53
2022-10-11T09:36:37.910Z,3.63
2022-10-11T09:39:15.606Z,3.90
2022-10-11T09:41:50.510Z,3.90
2022-10-11T09:44:24.288Z,4.20
2022-10-11T09:46:55.502Z,5.97
2022-10-11T09:49:28.886Z,7.30
2022-10-11T09:52:01.864Z,6.43
2022-10-11T09:54:41.475Z,3.90
2022-10-11T09:57:21.492Z,3.40
2022-10-11T10:00:01.373Z,3.53
2022-10-11T10:02:46.992Z,2.77
2022-10-11T10:05:21.097Z,6.17
2022-10-11T10:08:23.053Z,3.27
2022-10-11T10:11:05.399Z,2.87
2022-10-11T10:13:44.389Z,2.40
2022-10-11T10:16:25.885Z,2.40
2022-10-11T10:18:56.857Z,1.50
2022-10-11T10:21:29.556Z,2.50
2022-10-11T10:24:03.142Z,2.90
2022-10-11T10:26:32.245Z,3.30
2022-10-11T10:29:05.092Z,1.97
2022-10-11T10:32:09.269Z,3.97
2022-10-11T10:34:31.261Z,33.70
2022-10-11T10:37:04.954Z,12.98
2022-10-11T10:39:42.079Z,3.73
2022-10-11T10:42:16.427Z,2.10
2022-10-11T10:44:46.119Z,1.70
2022-10-11T10:47:22.584Z,1.77
2022-10-11T10:49:59.485Z,2.90
2022-10-11T10:52:53.029Z,1.50
2022-10-11T10:55:30.198Z,3.37
2022-10-11T10:58:07.334Z,3.37
2022-10-11T11:00:41.433Z,15.37
2022-10-11T11:03:18.305Z,42.00
2022-10-11T11:05:52.843Z,3.63
2022-10-11T11:08:31.674Z,2.63
2022-10-11T11:11:08.856Z,1.70
2022-10-11T11:13:46.895Z,2.13
2022-10-11T11:16:21.249Z,1.63
2022-10-11T11:18:58.591Z,1.70
2022-10-11T11:21:42.381Z,2.10
2022-10-11T11:24:19.560Z,1.52
2022-10-11T11:26:57.384Z,1.50
2022-10-11T11:29:41.179Z,1.30
2022-10-11T11:32:18.666Z,1.38
2022-10-11T11:34:51.054Z,1.30
2022-10-11T11:37:26.508Z,1.40
2022-10-11T11:39:58.727Z,1.60
2022-10-11T11:42:35.411Z,1.50
2022-10-11T11:45:07.077Z,1.77
2022-10-11T11:47:39.196Z,1.60
2022-10-11T11:50:22.647Z,1.80
2022-10-11T11:52:55.348Z,2.20
2022-10-11T11:55:32.447Z,1.90
2022-10-11T11:58:17.893Z,1.40
2022-10-11T12:00:54.728Z,1.77
2022-10-11T12:03:26.622Z,1.48
2022-10-11T12:06:18.889Z,1.10
2022-10-11T12:08:49.685Z,1.90
2022-10-11T12:11:22.974Z,1.45
2022-10-11T12:13:54.196Z,2.05
2022-10-11T12:16:24.126Z,2.65
2022-10-11T12:19:00.951Z,1.50
2022-10-11T12:21:33.079Z,1.70
2022-10-11T12:24:10.274Z,1.58
2022-10-11T12:26:46.638Z,1.58
2022-10-11T12:29:44.746Z,1.50
2022-10-11T12:32:49.433Z,1.52
2022-10-11T12:35:51.634Z,1.75
2022-10-11T12:38:23.810Z,1.77
2022-10-11T12:40:54.669Z,2.20
2022-10-11T12:43:32.295Z,1.88
2022-10-11T12:46:33.516Z,1.50
2022-10-11T12:49:17.718Z,2.30
2022-10-11T12:51:53.779Z,2.03
2022-10-11T12:54:37.563Z,1.60
2022-10-11T12:57:32.642Z,1.60
2022-10-11T13:00:18.954Z,1.70
2022-10-11T13:02:49.063Z,1.83
2022-10-11T13:05:24.299Z,2.10
2022-10-11T13:07:53.748Z,1.90
2022-10-11T13:10:27.518Z,1.80
2022-10-11T13:12:59.623Z,2.03
2022-10-11T13:15:29.694Z,2.40
2022-10-11T13:18:01.510Z,2.07
2022-10-11T13:20:37.671Z,3.03
2022-10-11T13:23:23.116Z,1.83
2022-10-11T13:25:52.103Z,2.00
2022-10-11T13:28:21.596Z,2.40
2022-10-11T13:30:52.335Z,2.30
2022-10-11T13:33:26.207Z,2.20
2022-10-11T13:35:58.902Z,2.20
2022-10-11T13:38:30.676Z,2.70
2022-10-11T13:41:01.044Z,2.80
2022-10-11T13:43:31.072Z,1.80
2022-10-11T13:46:01.709Z,2.00
2022-10-11T13:48:32.080Z,1.83
2022-10-11T13:51:10.486Z,2.35
2022-10-11T13:53:38.748Z,1.90
2022-10-11T13:56:09.498Z,1.63
2022-10-11T13:58:45.189Z,2.13
2022-10-11T14:01:22.924Z,1.65
2022-10-11T14:03:56.696Z,2.25
2022-10-11T14:06:39.649Z,2.47
2022-10-11T14:09:15.616Z,2.80
2022-10-11T14:11:43.877Z,2.47
2022-10-11T14:14:45.800Z,2.17
2022-10-11T14:17:17.653Z,1.98
2022-10-11T14:19:47.487Z,2.20
2022-10-11T14:22:18.843Z,2.13
2022-10-11T14:24:49.124Z,1.83
2022-10-11T14:27:21.424Z,2.20
2022-10-11T14:30:20.363Z,2.30
2022-10-11T14:32:38.803Z,2.13
2022-10-11T14:35:07.775Z,2.20
2022-10-11T14:37:41.999Z,2.00
2022-10-11T14:40:14.384Z,2.28
2022-10-11T14:42:42.637Z,2.43
2022-10-11T14:45:11.492Z,2.57
2022-10-11T14:47:42.998Z,2.60
2022-10-11T14:50:28.940Z,2.43
2022-10-11T14:52:59.053Z,2.40
2022-10-11T14:55:27.514Z,1.93
2022-10-11T14:57:56.575Z,2.47
2022-10-11T15:00:26.711Z,2.42
2022-10-11T15:02:55.808Z,2.20
2022-10-11T15:05:29.901Z,2.67
2022-10-11T15:08:03.684Z,2.90
2022-10-11T15:10:36.607Z,1.83
2022-10-11T15:13:05.206Z,1.87
2022-10-11T15:15:36.260Z,1.93
2022-10-11T15:18:06.651Z,2.37
2022-10-11T15:20:37.485Z,2.17
2022-10-11T15:23:10.881Z,2.10
2022-10-11T15:25:42.975Z,1.93
2022-10-11T15:28:21.359Z,1.77
2022-10-11T15:30:49.586Z,1.80
2022-10-11T15:33:17.886Z,1.77
2022-10-11T15:35:46.128Z,2.00
2022-10-11T15:38:18.679Z,2.10
2022-10-11T15:40:48.608Z,1.97
2022-10-11T15:43:22.019Z,2.30
2022-10-11T15:45:53.324Z,2.27
2022-10-11T15:48:23.565Z,1.90
2022-10-11T15:50:52.182Z,1.80
2022-10-11T15:53:24.763Z,1.90
2022-10-11T15:55:54.536Z,2.17
2022-10-11T15:58:24.707Z,2.57
2022-10-11T16:00:55.778Z,3.57
2022-10-11T16:03:26.438Z,4.30
2022-10-11T16:05:55.513Z,3.63
2022-10-11T16:08:25.531Z,3.53
2022-10-11T16:10:54.048Z,3.50
2022-10-11T16:13:22.531Z,3.73
2022-10-11T16:15:51.009Z,3.50
2022-10-11T16:18:22.188Z,3.83
2022-10-11T16:20:52.542Z,3.83
2022-10-11T16:23:21.913Z,4.83
2022-10-11T16:25:59.714Z,3.67
2022-10-11T16:28:29.003Z,3.90
2022-10-11T16:30:57.700Z,3.50
2022-10-11T16:33:26.135Z,2.87
2022-10-11T16:36:14.599Z,2.87
2022-10-11T16:38:42.888Z,2.67
2022-10-11T16:41:12.444Z,3.30
2022-10-11T16:43:40.996Z,2.80
2022-10-11T16:46:09.524Z,3.90
2022-10-11T16:48:37.883Z,4.50
2022-10-11T16:51:07.630Z,3.80
2022-10-11T16:53:36.217Z,4.40
2022-10-11T16:56:06.897Z,4.97
2022-10-11T16:58:37.609Z,4.63
2022-10-11T17:01:12.499Z,3.90
2022-10-11T17:03:40.783Z,3.50
2022-10-11T17:06:09.530Z,3.50
2022-10-11T17:08:40.289Z,2.93
2022-10-11T17:11:08.607Z,2.97
2022-10-11T17:13:40.742Z,3.00
2022-10-11T17:16:09.605Z,2.80
2022-10-11T17:18:38.345Z,3.13
2022-10-11T17:21:09.237Z,3.43
2022-10-11T17:23:37.571Z,2.80
2022-10-11T17:26:11.169Z,3.47
2022-10-11T17:28:41.400Z,3.37
2022-10-11T17:31:10.324Z,3.33
2022-10-11T17:33:40.412Z,3.37
2022-10-11T17:36:17.759Z,2.97
2022-10-11T17:38:46.065Z,3.17
2022-10-11T17:41:14.564Z,3.40
2022-10-11T17:43:44.703Z,4.30
2022-10-11T17:46:14.419Z,3.80
2022-10-11T17:48:44.614Z,5.40
2022-10-11T17:51:16.136Z,5.30
2022-10-11T17:53:45.206Z,6.50
2022-10-11T17:56:17.970Z,7.70
2022-10-11T17:58:48.923Z,6.47
2022-10-11T18:01:19.468Z,7.13
2022-10-11T18:03:52.696Z,6.80
2022-10-11T18:06:20.911Z,7.33
2022-10-11T18:08:49.287Z,7.23
2022-10-11T18:11:19.363Z,7.43
2022-10-11T18:13:51.193Z,7.87
2022-10-11T18:16:22.176Z,7.93
2022-10-11T18:18:51.161Z,8.07
2022-10-11T18:21:19.717Z,7.73
2022-10-11T18:23:47.982Z,8.50
2022-10-11T18:26:18.315Z,7.13
2022-10-11T18:28:47.886Z,8.17
2022-10-11T18:31:19.722Z,6.97
2022-10-11T18:33:50.778Z,7.57
2022-10-11T18:36:21.395Z,7.00
2022-10-11T18:38:53.240Z,7.70
2022-10-11T18:41:23.463Z,8.10
2022-10-11T18:43:53.251Z,7.27
2022-10-11T18:46:23.648Z,8.40
2022-10-11T18:48:53.792Z,9.50
2022-10-11T18:51:23.897Z,9.07
2022-10-11T18:53:52.301Z,10.93
2022-10-11T18:56:22.092Z,15.63
2022-10-11T18:58:51.913Z,16.97
2022-10-11T19:01:23.284Z,17.43
2022-10-11T19:03:53.722Z,13.40
2022-10-11T19:06:23.868Z,13.53
2022-10-11T19:08:54.696Z,13.33
2022-10-11T19:11:25.427Z,12.73
2022-10-11T19:13:57.801Z,13.30
2022-10-11T19:16:29.532Z,13.80
2022-10-11T19:18:58.860Z,15.30
2022-10-11T19:21:27.663Z,14.77
2022-10-11T19:23:57.219Z,15.33
2022-10-11T19:26:28.809Z,13.70
2022-10-11T19:28:59.775Z,13.37
2022-10-11T19:31:30.354Z,11.80
2022-10-11T19:33:59.333Z,11.83
2022-10-11T19:36:30.430Z,11.30
2022-10-11T19:39:00.927Z,11.13
2022-10-11T19:41:30.069Z,10.80
2022-10-11T19:43:59.105Z,9.57
2022-10-11T19:49:20.474Z,10.07
2022-10-11T19:51:48.724Z,11.43
2022-10-11T19:54:17.609Z,11.50
2022-10-11T19:56:46.142Z,11.47
2022-10-11T19:59:14.968Z,12.43
2022-10-11T20:01:48.108Z,12.13
2022-10-11T20:04:47.141Z,13.20
2022-10-11T20:07:08.220Z,14.17
2022-10-11T20:09:36.672Z,18.67
2022-10-11T20:12:04.973Z,20.30
2022-10-11T20:14:33.115Z,21.80
2022-10-11T20:17:02.752Z,25.37
2022-10-11T20:19:31.233Z,24.90
2022-10-11T20:22:01.050Z,24.53
2022-10-11T20:24:33.491Z,25.23
2022-10-11T20:27:04.529Z,25.07
2022-10-11T20:29:33.030Z,29.87
2022-10-11T20:32:02.534Z,28.67
2022-10-11T20:34:30.805Z,26.37
2022-10-11T20:36:59.375Z,23.37
2022-10-11T20:39:27.867Z,22.30
2022-10-11T20:41:56.001Z,22.23
2022-10-11T20:44:24.312Z,21.70
2022-10-11T20:46:52.519Z,19.27
2022-10-11T20:49:22.583Z,17.43
2022-10-11T20:51:51.259Z,16.60
2022-10-11T20:54:19.538Z,16.27
2022-10-11T20:56:47.795Z,16.07
2022-10-11T20:59:16.092Z,16.63
2022-10-11T21:01:44.451Z,15.43
2022-10-11T21:04:18.895Z,15.70
2022-10-11T21:06:49.132Z,14.97
2022-10-11T21:09:17.574Z,14.87
2022-10-11T21:11:45.778Z,15.57
2022-10-11T21:14:14.035Z,14.63
2022-10-11T21:16:42.407Z,13.77
2022-10-11T21:19:15.157Z,14.30
2022-10-11T21:21:45.024Z,13.73
2022-10-11T21:24:16.005Z,14.00
2022-10-11T21:26:44.213Z,12.83
2022-10-11T21:29:12.414Z,14.07
2022-10-11T21:31:41.622Z,14.43
2022-10-11T21:34:09.915Z,13.27
2022-10-11T21:36:38.220Z,13.53
2022-10-11T21:39:06.744Z,13.60
2022-10-11T21:41:36.320Z,14.43
2022-10-11T21:44:05.439Z,14.67
2022-10-11T21:49:22.239Z,13.90
2022-10-11T21:51:50.546Z,13.67
2022-10-11T21:54:18.826Z,15.10
2022-10-11T21:56:48.665Z,14.93
2022-10-11T21:59:17.068Z,15.03
2022-10-11T22:01:45.595Z,15.90
2022-10-11T22:04:14.124Z,15.83
2022-10-11T22:06:42.353Z,16.17
2022-10-11T22:09:10.840Z,14.20
2022-10-11T22:11:39.163Z,16.60
2022-10-11T22:14:08.753Z,14.43
2022-10-11T22:16:37.072Z,13.63
2022-10-11T22:19:05.379Z,13.73
2022-10-11T22:21:33.557Z,12.70
2022-10-11T22:24:01.685Z,13.30
2022-10-11T22:26:31.843Z,13.33
2022-10-11T22:29:01.379Z,12.53
2022-10-11T22:31:31.197Z,13.93
2022-10-11T22:34:01.544Z,12.63
2022-10-11T22:36:31.001Z,12.57
2022-10-11T22:38:59.237Z,13.40
2022-10-11T22:41:28.655Z,12.00
2022-10-11T22:43:56.871Z,13.47
2022-10-11T22:46:25.091Z,12.77
2022-10-11T22:48:54.758Z,12.27
2022-10-11T22:51:22.989Z,12.47
2022-10-11T22:53:51.216Z,12.00
2022-10-11T22:56:19.470Z,11.63
2022-10-11T22:58:47.747Z,12.10
2022-10-11T23:01:17.133Z,11.73
2022-10-11T23:03:49.503Z,11.90
2022-10-11T23:06:19.112Z,11.43
2022-10-11T23:08:47.528Z,12.80
2022-10-11T23:11:15.763Z,11.17
2022-10-11T23:13:43.941Z,12.87
2022-10-11T23:16:15.340Z,12.23
2022-10-11T23:18:43.635Z,12.60
2022-10-11T23:21:13.187Z,11.93
2022-10-11T23:23:42.754Z,11.77
2022-10-11T23:26:13.186Z,11.07
2022-10-11T23:28:41.671Z,11.37
2022-10-11T23:31:11.275Z,12.17
2022-10-11T23:33:40.061Z,12.00
2022-10-11T23:36:15.828Z,10.70
2022-10-11T23:38:45.954Z,11.73
2022-10-11T23:41:14.405Z,11.60
2022-10-11T23:43:42.760Z,12.60
2022-10-11T23:46:11.059Z,12.23
2022-10-11T23:48:39.254Z,12.83
2022-10-11T23:51:07.999Z,11.97
2022-10-11T23:53:36.949Z,12.77
2022-10-11T23:56:07.421Z,11.40
2022-10-11T23:58:35.858Z,10.63
